sensor_id;sensor_type;location;lat;lon;timestamp;temperature;humidity
2300;DHT22;1158;48.750;9.078;2023-02-28T00:01:06;-3.50;95.30
2300;DHT22;1158;48.750;9.078;2023-02-28T00:03:33;-3.50;95.50
2300;DHT22;1158;48.750;9.078;2023-02-28T00:06:01;-3.60;95.60
2300;DHT22;1158;48.750;9.078;2023-02-28T00:08:28;-3.60;95.70
2300;DHT22;1158;48.750;9.078;2023-02-28T00:10:55;-3.60;95.90
2300;DHT22;1158;48.750;9.078;2023-02-28T00:13:23;-3.70;96.00
2300;DHT22;1158;48.750;9.078;2023-02-28T00:15:59;-3.70;96.20
2300;DHT22;1158;48.750;9.078;2023-02-28T00:18:25;-3.70;96.40
2300;DHT22;1158;48.750;9.078;2023-02-28T00:20:52;-3.70;96.40
2300;DHT22;1158;48.750;9.078;2023-02-28T00:23:19;-3.80;96.50
2300;DHT22;1158;48.750;9.078;2023-02-28T00:25:46;-3.80;96.70
2300;DHT22;1158;48.750;9.078;2023-02-28T00:28:12;-3.80;96.70
2300;DHT22;1158;48.750;9.078;2023-02-28T00:30:40;-3.80;96.80
2300;DHT22;1158;48.750;9.078;2023-02-28T00:33:07;-3.80;96.80
2300;DHT22;1158;48.750;9.078;2023-02-28T00:35:34;-3.80;96.90
2300;DHT22;1158;48.750;9.078;2023-02-28T00:38:01;-3.90;96.90
2300;DHT22;1158;48.750;9.078;2023-02-28T00:40:28;-3.90;97.10
2300;DHT22;1158;48.750;9.078;2023-02-28T00:42:55;-3.90;97.10
2300;DHT22;1158;48.750;9.078;2023-02-28T00:45:22;-3.90;97.20
2300;DHT22;1158;48.750;9.078;2023-02-28T00:47:50;-3.90;97.40
2300;DHT22;1158;48.750;9.078;2023-02-28T00:50:17;-3.90;97.40
2300;DHT22;1158;48.750;9.078;2023-02-28T00:52:44;-3.90;97.50
2300;DHT22;1158;48.750;9.078;2023-02-28T00:55:11;-4.00;97.60
2300;DHT22;1158;48.750;9.078;2023-02-28T00:57:37;-4.00;97.70
2300;DHT22;1158;48.750;9.078;2023-02-28T01:00:05;-4.00;97.90
2300;DHT22;1158;48.750;9.078;2023-02-28T01:02:32;-3.90;97.90
2300;DHT22;1158;48.750;9.078;2023-02-28T01:05:00;-3.70;98.10
2300;DHT22;1158;48.750;9.078;2023-02-28T01:07:27;-3.70;97.60
2300;DHT22;1158;48.750;9.078;2023-02-28T01:09:54;-3.80;97.80
2300;DHT22;1158;48.750;9.078;2023-02-28T01:12:21;-3.80;97.90
2300;DHT22;1158;48.750;9.078;2023-02-28T01:14:47;-3.90;97.90
2300;DHT22;1158;48.750;9.078;2023-02-28T01:17:14;-3.90;98.40
2300;DHT22;1158;48.750;9.078;2023-02-28T01:19:41;-4.00;98.80
2300;DHT22;1158;48.750;9.078;2023-02-28T01:22:09;-4.00;98.60
2300;DHT22;1158;48.750;9.078;2023-02-28T01:24:37;-4.00;98.70
2300;DHT22;1158;48.750;9.078;2023-02-28T01:27:04;-4.10;98.90
2300;DHT22;1158;48.750;9.078;2023-02-28T01:29:30;-4.00;99.00
2300;DHT22;1158;48.750;9.078;2023-02-28T01:31:57;-4.10;99.10
2300;DHT22;1158;48.750;9.078;2023-02-28T01:34:24;-4.00;99.20
2300;DHT22;1158;48.750;9.078;2023-02-28T01:36:51;-4.00;99.30
2300;DHT22;1158;48.750;9.078;2023-02-28T01:39:19;-4.00;99.50
2300;DHT22;1158;48.750;9.078;2023-02-28T01:41:46;-4.00;99.50
2300;DHT22;1158;48.750;9.078;2023-02-28T01:47:17;-4.00;99.50
2300;DHT22;1158;48.750;9.078;2023-02-28T01:49:44;-4.00;99.80
2300;DHT22;1158;48.750;9.078;2023-02-28T01:52:12;-4.10;99.90
2300;DHT22;1158;48.750;9.078;2023-02-28T01:54:45;-4.10;99.90
2300;DHT22;1158;48.750;9.078;2023-02-28T01:57:18;-4.10;99.90
2300;DHT22;1158;48.750;9.078;2023-02-28T01:59:48;-4.00;99.90
2300;DHT22;1158;48.750;9.078;2023-02-28T02:02:19;-4.00;99.90
2300;DHT22;1158;48.750;9.078;2023-02-28T02:04:50;-4.00;99.90
2300;DHT22;1158;48.750;9.078;2023-02-28T02:07:18;-4.00;99.90
2300;DHT22;1158;48.750;9.078;2023-02-28T02:09:46;-4.10;99.90
2300;DHT22;1158;48.750;9.078;2023-02-28T02:12:23;-4.10;99.90
2300;DHT22;1158;48.750;9.078;2023-02-28T02:15:00;-4.20;99.90
2300;DHT22;1158;48.750;9.078;2023-02-28T02:17:33;-4.10;99.90
2300;DHT22;1158;48.750;9.078;2023-02-28T02:23:33;-4.00;99.90
2300;DHT22;1158;48.750;9.078;2023-02-28T02:32:44;-3.90;99.90
2300;DHT22;1158;48.750;9.078;2023-02-28T02:35:15;-3.80;99.90
2300;DHT22;1158;48.750;9.078;2023-02-28T02:37:49;-3.80;99.90
2300;DHT22;1158;48.750;9.078;2023-02-28T02:40:20;-3.80;99.90
2300;DHT22;1158;48.750;9.078;2023-02-28T02:42:51;-3.80;99.90
2300;DHT22;1158;48.750;9.078;2023-02-28T02:45:25;-3.70;99.90
2300;DHT22;1158;48.750;9.078;2023-02-28T02:47:53;-3.70;99.90
2300;DHT22;1158;48.750;9.078;2023-02-28T02:50:25;-3.70;99.90
2300;DHT22;1158;48.750;9.078;2023-02-28T02:52:56;-3.70;99.90
2300;DHT22;1158;48.750;9.078;2023-02-28T02:55:25;-3.70;99.90
2300;DHT22;1158;48.750;9.078;2023-02-28T02:57:54;-3.60;99.90
2300;DHT22;1158;48.750;9.078;2023-02-28T03:00:26;-3.60;99.90
2300;DHT22;1158;48.750;9.078;2023-02-28T03:02:54;-3.60;99.90
2300;DHT22;1158;48.750;9.078;2023-02-28T03:05:26;-3.60;99.90
2300;DHT22;1158;48.750;9.078;2023-02-28T03:07:53;-3.60;99.90
2300;DHT22;1158;48.750;9.078;2023-02-28T03:10:33;-3.50;99.90
2300;DHT22;1158;48.750;9.078;2023-02-28T03:13:16;-3.50;99.90
2300;DHT22;1158;48.750;9.078;2023-02-28T03:15:55;-3.50;99.90
2300;DHT22;1158;48.750;9.078;2023-02-28T03:18:29;-3.50;99.90
2300;DHT22;1158;48.750;9.078;2023-02-28T03:21:06;-3.40;99.90
2300;DHT22;1158;48.750;9.078;2023-02-28T03:23:41;-3.40;99.90
2300;DHT22;1158;48.750;9.078;2023-02-28T03:26:16;-3.40;99.90
2300;DHT22;1158;48.750;9.078;2023-02-28T03:28:55;-3.40;99.90
2300;DHT22;1158;48.750;9.078;2023-02-28T03:31:29;-3.40;99.90
2300;DHT22;1158;48.750;9.078;2023-02-28T03:34:01;-3.40;99.90
2300;DHT22;1158;48.750;9.078;2023-02-28T03:36:33;-3.40;99.90
2300;DHT22;1158;48.750;9.078;2023-02-28T03:39:13;-3.40;99.90
2300;DHT22;1158;48.750;9.078;2023-02-28T03:41:42;-3.40;99.90
2300;DHT22;1158;48.750;9.078;2023-02-28T03:44:16;-3.40;99.90
2300;DHT22;1158;48.750;9.078;2023-02-28T03:46:47;-3.40;99.90
2300;DHT22;1158;48.750;9.078;2023-02-28T03:49:17;-3.30;99.90
2300;DHT22;1158;48.750;9.078;2023-02-28T03:51:47;-3.40;99.90
2300;DHT22;1158;48.750;9.078;2023-02-28T03:54:19;-3.30;99.90
2300;DHT22;1158;48.750;9.078;2023-02-28T03:56:51;-3.30;99.90
2300;DHT22;1158;48.750;9.078;2023-02-28T03:59:24;-3.30;99.90
2300;DHT22;1158;48.750;9.078;2023-02-28T04:01:52;-3.30;99.90
2300;DHT22;1158;48.750;9.078;2023-02-28T04:04:20;-3.30;99.90
2300;DHT22;1158;48.750;9.078;2023-02-28T04:06:51;-3.30;99.90
2300;DHT22;1158;48.750;9.078;2023-02-28T04:09:18;-3.20;99.90
2300;DHT22;1158;48.750;9.078;2023-02-28T04:11:48;-3.30;99.90
2300;DHT22;1158;48.750;9.078;2023-02-28T04:14:20;-3.30;99.90
2300;DHT22;1158;48.750;9.078;2023-02-28T04:16:47;-3.20;99.90
2300;DHT22;1158;48.750;9.078;2023-02-28T04:19:14;-3.20;99.90
2300;DHT22;1158;48.750;9.078;2023-02-28T04:21:42;-3.20;99.90
2300;DHT22;1158;48.750;9.078;2023-02-28T04:24:12;-3.20;99.90
2300;DHT22;1158;48.750;9.078;2023-02-28T04:26:56;-3.20;99.90
2300;DHT22;1158;48.750;9.078;2023-02-28T04:29:25;-3.20;99.90
2300;DHT22;1158;48.750;9.078;2023-02-28T04:31:52;-3.10;99.90
2300;DHT22;1158;48.750;9.078;2023-02-28T04:34:19;-3.10;99.90
2300;DHT22;1158;48.750;9.078;2023-02-28T04:36:47;-3.10;99.90
2300;DHT22;1158;48.750;9.078;2023-02-28T04:39:17;-3.10;99.90
2300;DHT22;1158;48.750;9.078;2023-02-28T04:41:44;-3.10;99.90
2300;DHT22;1158;48.750;9.078;2023-02-28T04:44:11;-3.10;99.90
2300;DHT22;1158;48.750;9.078;2023-02-28T04:46:38;-3.00;99.90
2300;DHT22;1158;48.750;9.078;2023-02-28T04:49:05;-3.10;99.90
2300;DHT22;1158;48.750;9.078;2023-02-28T04:51:32;-3.00;99.90
2300;DHT22;1158;48.750;9.078;2023-02-28T04:53:58;-3.00;99.90
2300;DHT22;1158;48.750;9.078;2023-02-28T04:56:27;-3.10;99.90
2300;DHT22;1158;48.750;9.078;2023-02-28T04:58:53;-3.00;99.90
2300;DHT22;1158;48.750;9.078;2023-02-28T05:01:23;-3.10;99.90
2300;DHT22;1158;48.750;9.078;2023-02-28T05:03:51;-3.00;99.90
2300;DHT22;1158;48.750;9.078;2023-02-28T05:06:19;-3.00;99.90
2300;DHT22;1158;48.750;9.078;2023-02-28T05:08:46;-3.00;99.90
2300;DHT22;1158;48.750;9.078;2023-02-28T05:11:16;-3.00;99.90
2300;DHT22;1158;48.750;9.078;2023-02-28T05:13:48;-3.00;99.90
2300;DHT22;1158;48.750;9.078;2023-02-28T05:16:15;-2.90;99.90
2300;DHT22;1158;48.750;9.078;2023-02-28T05:18:42;-2.90;99.90
2300;DHT22;1158;48.750;9.078;2023-02-28T05:21:23;-2.90;99.90
2300;DHT22;1158;48.750;9.078;2023-02-28T05:23:50;-2.90;99.90
2300;DHT22;1158;48.750;9.078;2023-02-28T05:26:17;-2.90;99.90
2300;DHT22;1158;48.750;9.078;2023-02-28T05:28:44;-2.90;99.90
2300;DHT22;1158;48.750;9.078;2023-02-28T05:31:12;-2.90;99.90
2300;DHT22;1158;48.750;9.078;2023-02-28T05:33:39;-2.90;99.90
2300;DHT22;1158;48.750;9.078;2023-02-28T05:36:06;-2.90;99.90
2300;DHT22;1158;48.750;9.078;2023-02-28T05:38:33;-2.90;99.90
2300;DHT22;1158;48.750;9.078;2023-02-28T05:41:04;-2.90;99.90
2300;DHT22;1158;48.750;9.078;2023-02-28T05:43:30;-2.80;99.90
2300;DHT22;1158;48.750;9.078;2023-02-28T05:45:57;-2.80;99.90
2300;DHT22;1158;48.750;9.078;2023-02-28T05:48:25;-2.80;99.90
2300;DHT22;1158;48.750;9.078;2023-02-28T05:50:52;-2.90;99.90
2300;DHT22;1158;48.750;9.078;2023-02-28T05:53:19;-2.90;99.90
2300;DHT22;1158;48.750;9.078;2023-02-28T05:55:46;-2.80;99.90
2300;DHT22;1158;48.750;9.078;2023-02-28T05:58:13;-2.80;99.90
2300;DHT22;1158;48.750;9.078;2023-02-28T06:00:39;-2.80;99.90
2300;DHT22;1158;48.750;9.078;2023-02-28T06:03:06;-2.80;99.90
2300;DHT22;1158;48.750;9.078;2023-02-28T06:05:34;-2.90;99.90
2300;DHT22;1158;48.750;9.078;2023-02-28T06:08:01;-2.80;99.90
2300;DHT22;1158;48.750;9.078;2023-02-28T06:10:27;-2.80;99.90
2300;DHT22;1158;48.750;9.078;2023-02-28T06:12:54;-2.80;99.90
2300;DHT22;1158;48.750;9.078;2023-02-28T06:15:21;-2.80;99.90
2300;DHT22;1158;48.750;9.078;2023-02-28T06:17:47;-2.80;99.90
2300;DHT22;1158;48.750;9.078;2023-02-28T06:20:14;-2.80;99.90
2300;DHT22;1158;48.750;9.078;2023-02-28T06:22:42;-2.80;99.90
2300;DHT22;1158;48.750;9.078;2023-02-28T06:25:10;-2.80;99.90
2300;DHT22;1158;48.750;9.078;2023-02-28T06:27:37;-2.80;99.90
2300;DHT22;1158;48.750;9.078;2023-02-28T06:30:04;-2.80;99.90
2300;DHT22;1158;48.750;9.078;2023-02-28T06:32:31;-2.80;99.90
2300;DHT22;1158;48.750;9.078;2023-02-28T06:34:58;-2.80;99.90
2300;DHT22;1158;48.750;9.078;2023-02-28T06:37:24;-2.70;99.90
2300;DHT22;1158;48.750;9.078;2023-02-28T06:39:54;-2.80;99.90
2300;DHT22;1158;48.750;9.078;2023-02-28T06:42:21;-2.70;99.90
2300;DHT22;1158;48.750;9.078;2023-02-28T06:44:50;-2.70;99.90
2300;DHT22;1158;48.750;9.078;2023-02-28T06:47:16;-2.70;99.90
2300;DHT22;1158;48.750;9.078;2023-02-28T06:49:43;-2.70;99.90
2300;DHT22;1158;48.750;9.078;2023-02-28T06:52:11;-2.70;99.90
2300;DHT22;1158;48.750;9.078;2023-02-28T06:54:37;-2.70;99.90
2300;DHT22;1158;48.750;9.078;2023-02-28T06:57:05;-2.60;99.90
2300;DHT22;1158;48.750;9.078;2023-02-28T06:59:32;-2.60;99.90
2300;DHT22;1158;48.750;9.078;2023-02-28T07:02:00;-2.60;99.90
2300;DHT22;1158;48.750;9.078;2023-02-28T07:04:27;-2.60;99.90
2300;DHT22;1158;48.750;9.078;2023-02-28T07:06:54;-2.50;99.90
2300;DHT22;1158;48.750;9.078;2023-02-28T07:09:22;-2.50;99.90
2300;DHT22;1158;48.750;9.078;2023-02-28T07:11:49;-2.40;99.90
2300;DHT22;1158;48.750;9.078;2023-02-28T07:14:17;-2.40;99.90
2300;DHT22;1158;48.750;9.078;2023-02-28T07:16:44;-2.40;99.90
2300;DHT22;1158;48.750;9.078;2023-02-28T07:19:11;-2.40;99.90
2300;DHT22;1158;48.750;9.078;2023-02-28T07:21:37;-2.30;99.90
2300;DHT22;1158;48.750;9.078;2023-02-28T07:24:05;-2.30;99.90
2300;DHT22;1158;48.750;9.078;2023-02-28T07:26:32;-2.30;99.90
2300;DHT22;1158;48.750;9.078;2023-02-28T07:28:59;-2.30;99.90
2300;DHT22;1158;48.750;9.078;2023-02-28T07:31:27;-2.20;99.90
2300;DHT22;1158;48.750;9.078;2023-02-28T07:33:54;-2.10;99.90
2300;DHT22;1158;48.750;9.078;2023-02-28T07:36:21;-2.10;99.90
2300;DHT22;1158;48.750;9.078;2023-02-28T07:38:48;-2.10;99.90
2300;DHT22;1158;48.750;9.078;2023-02-28T07:41:16;-2.10;99.90
2300;DHT22;1158;48.750;9.078;2023-02-28T07:43:43;-2.00;99.90
2300;DHT22;1158;48.750;9.078;2023-02-28T07:46:12;-2.10;99.90
2300;DHT22;1158;48.750;9.078;2023-02-28T07:48:42;-2.00;99.90
2300;DHT22;1158;48.750;9.078;2023-02-28T07:51:08;-2.00;99.90
2300;DHT22;1158;48.750;9.078;2023-02-28T07:53:35;-2.00;99.90
2300;DHT22;1158;48.750;9.078;2023-02-28T07:56:03;-2.00;99.90
2300;DHT22;1158;48.750;9.078;2023-02-28T07:58:30;-1.90;99.90
2300;DHT22;1158;48.750;9.078;2023-02-28T08:00:57;-1.90;99.90
2300;DHT22;1158;48.750;9.078;2023-02-28T08:03:30;-1.80;99.90
2300;DHT22;1158;48.750;9.078;2023-02-28T08:05:58;-1.80;99.90
2300;DHT22;1158;48.750;9.078;2023-02-28T08:08:25;-1.80;99.90
2300;DHT22;1158;48.750;9.078;2023-02-28T08:10:54;-1.80;99.90
2300;DHT22;1158;48.750;9.078;2023-02-28T08:13:21;-1.70;99.90
2300;DHT22;1158;48.750;9.078;2023-02-28T08:15:47;-1.60;99.90
2300;DHT22;1158;48.750;9.078;2023-02-28T08:18:14;-1.60;99.90
2300;DHT22;1158;48.750;9.078;2023-02-28T08:20:41;-1.60;99.90
2300;DHT22;1158;48.750;9.078;2023-02-28T08:23:09;-1.50;99.90
2300;DHT22;1158;48.750;9.078;2023-02-28T08:25:35;-1.40;99.90
2300;DHT22;1158;48.750;9.078;2023-02-28T08:28:02;-1.40;99.90
2300;DHT22;1158;48.750;9.078;2023-02-28T08:30:29;-1.40;99.90
2300;DHT22;1158;48.750;9.078;2023-02-28T08:32:56;-1.40;99.90
2300;DHT22;1158;48.750;9.078;2023-02-28T08:35:23;-1.40;99.90
2300;DHT22;1158;48.750;9.078;2023-02-28T08:37:50;-1.30;99.90
2300;DHT22;1158;48.750;9.078;2023-02-28T08:40:18;-1.20;99.90
2300;DHT22;1158;48.750;9.078;2023-02-28T08:42:45;-1.10;99.90
2300;DHT22;1158;48.750;9.078;2023-02-28T08:45:12;-1.10;99.90
2300;DHT22;1158;48.750;9.078;2023-02-28T08:47:39;-1.20;99.90
2300;DHT22;1158;48.750;9.078;2023-02-28T08:50:07;-1.10;99.90
2300;DHT22;1158;48.750;9.078;2023-02-28T08:52:34;-1.10;99.90
2300;DHT22;1158;48.750;9.078;2023-02-28T08:55:00;-1.00;99.90
2300;DHT22;1158;48.750;9.078;2023-02-28T08:57:28;-1.10;99.90
2300;DHT22;1158;48.750;9.078;2023-02-28T08:59:55;-1.00;99.90
2300;DHT22;1158;48.750;9.078;2023-02-28T09:02:22;-1.00;99.90
2300;DHT22;1158;48.750;9.078;2023-02-28T09:04:49;-1.00;99.90
2300;DHT22;1158;48.750;9.078;2023-02-28T09:07:16;-0.90;99.90
2300;DHT22;1158;48.750;9.078;2023-02-28T09:09:42;-0.90;99.90
2300;DHT22;1158;48.750;9.078;2023-02-28T09:12:19;-0.90;99.90
2300;DHT22;1158;48.750;9.078;2023-02-28T09:14:48;-0.90;99.90
2300;DHT22;1158;48.750;9.078;2023-02-28T09:17:15;-0.70;99.90
2300;DHT22;1158;48.750;9.078;2023-02-28T09:19:42;-0.70;99.90
2300;DHT22;1158;48.750;9.078;2023-02-28T09:22:09;-0.80;99.90
2300;DHT22;1158;48.750;9.078;2023-02-28T09:24:36;-0.80;99.90
2300;DHT22;1158;48.750;9.078;2023-02-28T09:27:03;-0.70;99.90
2300;DHT22;1158;48.750;9.078;2023-02-28T09:29:31;-0.60;99.90
2300;DHT22;1158;48.750;9.078;2023-02-28T09:31:59;-0.50;99.90
2300;DHT22;1158;48.750;9.078;2023-02-28T09:34:27;-0.50;99.90
2300;DHT22;1158;48.750;9.078;2023-02-28T09:36:56;-0.50;99.90
2300;DHT22;1158;48.750;9.078;2023-02-28T09:39:23;-0.40;99.90
2300;DHT22;1158;48.750;9.078;2023-02-28T09:41:52;-0.30;99.90
2300;DHT22;1158;48.750;9.078;2023-02-28T09:44:24;-0.30;99.90
2300;DHT22;1158;48.750;9.078;2023-02-28T09:46:57;-0.20;99.90
2300;DHT22;1158;48.750;9.078;2023-02-28T09:49:33;-0.30;99.90
2300;DHT22;1158;48.750;9.078;2023-02-28T09:52:03;-0.40;99.90
2300;DHT22;1158;48.750;9.078;2023-02-28T09:54:32;-0.30;99.90
2300;DHT22;1158;48.750;9.078;2023-02-28T09:57:02;-0.20;99.90
2300;DHT22;1158;48.750;9.078;2023-02-28T09:59:59;-0.20;99.90
2300;DHT22;1158;48.750;9.078;2023-02-28T10:02:46;-0.10;99.90
2300;DHT22;1158;48.750;9.078;2023-02-28T10:05:18;0.20;99.80
2300;DHT22;1158;48.750;9.078;2023-02-28T10:07:54;0.20;99.50
2300;DHT22;1158;48.750;9.078;2023-02-28T10:10:28;0.30;99.50
2300;DHT22;1158;48.750;9.078;2023-02-28T10:12:59;0.30;99.20
2300;DHT22;1158;48.750;9.078;2023-02-28T10:15:30;0.40;99.60
2300;DHT22;1158;48.750;9.078;2023-02-28T10:18:01;0.50;99.30
2300;DHT22;1158;48.750;9.078;2023-02-28T10:20:32;0.40;99.00
2300;DHT22;1158;48.750;9.078;2023-02-28T10:23:07;0.40;98.90
2300;DHT22;1158;48.750;9.078;2023-02-28T10:25:37;0.50;98.60
2300;DHT22;1158;48.750;9.078;2023-02-28T10:28:10;0.40;98.80
2300;DHT22;1158;48.750;9.078;2023-02-28T10:30:40;0.50;99.00
2300;DHT22;1158;48.750;9.078;2023-02-28T10:33:17;0.50;98.80
2300;DHT22;1158;48.750;9.078;2023-02-28T10:35:46;0.70;98.80
2300;DHT22;1158;48.750;9.078;2023-02-28T10:38:17;0.80;98.50
2300;DHT22;1158;48.750;9.078;2023-02-28T10:40:45;0.90;98.10
2300;DHT22;1158;48.750;9.078;2023-02-28T10:43:20;1.10;98.10
2300;DHT22;1158;48.750;9.078;2023-02-28T10:45:56;1.30;97.90
2300;DHT22;1158;48.750;9.078;2023-02-28T10:48:30;1.40;97.60
2300;DHT22;1158;48.750;9.078;2023-02-28T10:51:00;1.40;97.50
2300;DHT22;1158;48.750;9.078;2023-02-28T10:53:31;1.70;97.30
2300;DHT22;1158;48.750;9.078;2023-02-28T10:56:00;1.70;97.10
2300;DHT22;1158;48.750;9.078;2023-02-28T10:58:29;1.80;97.20
2300;DHT22;1158;48.750;9.078;2023-02-28T11:00:56;1.80;96.90
2300;DHT22;1158;48.750;9.078;2023-02-28T11:03:28;2.00;96.60
2300;DHT22;1158;48.750;9.078;2023-02-28T11:05:55;2.00;96.20
2300;DHT22;1158;48.750;9.078;2023-02-28T11:08:23;2.10;96.60
2300;DHT22;1158;48.750;9.078;2023-02-28T11:10:54;2.50;96.00
2300;DHT22;1158;48.750;9.078;2023-02-28T11:13:26;3.00;96.10
2300;DHT22;1158;48.750;9.078;2023-02-28T11:15:55;4.20;94.90
2300;DHT22;1158;48.750;9.078;2023-02-28T11:18:27;4.80;92.90
2300;DHT22;1158;48.750;9.078;2023-02-28T11:20:57;4.60;92.80
2300;DHT22;1158;48.750;9.078;2023-02-28T11:23:26;4.50;92.40
2300;DHT22;1158;48.750;9.078;2023-02-28T11:25:58;4.10;92.50
2300;DHT22;1158;48.750;9.078;2023-02-28T11:28:28;3.50;93.50
2300;DHT22;1158;48.750;9.078;2023-02-28T11:31:05;3.20;93.60
2300;DHT22;1158;48.750;9.078;2023-02-28T11:33:41;3.10;93.90
2300;DHT22;1158;48.750;9.078;2023-02-28T11:36:12;3.70;93.70
2300;DHT22;1158;48.750;9.078;2023-02-28T11:38:41;4.10;93.20
2300;DHT22;1158;48.750;9.078;2023-02-28T11:41:18;4.70;93.10
2300;DHT22;1158;48.750;9.078;2023-02-28T11:44:05;4.50;91.70
2300;DHT22;1158;48.750;9.078;2023-02-28T11:46:40;5.30;92.00
2300;DHT22;1158;48.750;9.078;2023-02-28T11:49:20;5.70;92.00
2300;DHT22;1158;48.750;9.078;2023-02-28T11:51:55;6.00;90.80
2300;DHT22;1158;48.750;9.078;2023-02-28T11:54:46;6.20;90.10
2300;DHT22;1158;48.750;9.078;2023-02-28T11:57:32;6.40;90.10
2300;DHT22;1158;48.750;9.078;2023-02-28T12:00:03;6.40;90.20
2300;DHT22;1158;48.750;9.078;2023-02-28T12:02:41;7.10;88.90
2300;DHT22;1158;48.750;9.078;2023-02-28T12:05:24;7.40;93.50
2300;DHT22;1158;48.750;9.078;2023-02-28T12:08:03;6.70;86.80
2300;DHT22;1158;48.750;9.078;2023-02-28T12:10:37;5.70;88.70
2300;DHT22;1158;48.750;9.078;2023-02-28T12:13:15;5.00;90.40
2300;DHT22;1158;48.750;9.078;2023-02-28T12:16:11;4.90;90.80
2300;DHT22;1158;48.750;9.078;2023-02-28T12:18:57;4.70;90.60
2300;DHT22;1158;48.750;9.078;2023-02-28T12:21:33;4.70;91.30
2300;DHT22;1158;48.750;9.078;2023-02-28T12:24:14;4.90;90.70
2300;DHT22;1158;48.750;9.078;2023-02-28T12:26:49;5.10;90.80
2300;DHT22;1158;48.750;9.078;2023-02-28T12:29:21;5.80;90.50
2300;DHT22;1158;48.750;9.078;2023-02-28T12:31:54;5.80;89.20
2300;DHT22;1158;48.750;9.078;2023-02-28T12:34:27;5.80;98.50
2300;DHT22;1158;48.750;9.078;2023-02-28T12:36:56;6.40;92.90
2300;DHT22;1158;48.750;9.078;2023-02-28T12:39:28;6.70;90.10
2300;DHT22;1158;48.750;9.078;2023-02-28T12:41:59;6.90;89.20
2300;DHT22;1158;48.750;9.078;2023-02-28T12:44:34;6.80;89.40
2300;DHT22;1158;48.750;9.078;2023-02-28T12:47:04;7.10;88.40
2300;DHT22;1158;48.750;9.078;2023-02-28T12:49:34;7.30;86.70
2300;DHT22;1158;48.750;9.078;2023-02-28T12:52:04;7.80;84.80
2300;DHT22;1158;48.750;9.078;2023-02-28T12:54:35;7.80;85.20
2300;DHT22;1158;48.750;9.078;2023-02-28T12:57:09;7.90;84.60
2300;DHT22;1158;48.750;9.078;2023-02-28T12:59:42;8.20;84.30
2300;DHT22;1158;48.750;9.078;2023-02-28T13:02:33;7.50;84.00
2300;DHT22;1158;48.750;9.078;2023-02-28T13:08:24;8.30;83.30
2300;DHT22;1158;48.750;9.078;2023-02-28T13:10:54;7.40;83.50
2300;DHT22;1158;48.750;9.078;2023-02-28T13:13:27;7.90;85.30
2300;DHT22;1158;48.750;9.078;2023-02-28T13:16:04;8.60;86.10
2300;DHT22;1158;48.750;9.078;2023-02-28T13:18:34;8.60;81.80
2300;DHT22;1158;48.750;9.078;2023-02-28T13:21:04;7.80;83.20
2300;DHT22;1158;48.750;9.078;2023-02-28T13:24:01;8.10;83.20
2300;DHT22;1158;48.750;9.078;2023-02-28T13:27:10;8.80;81.80
2300;DHT22;1158;48.750;9.078;2023-02-28T13:29:39;8.50;83.10
2300;DHT22;1158;48.750;9.078;2023-02-28T13:32:29;8.50;81.50
2300;DHT22;1158;48.750;9.078;2023-02-28T13:38:35;8.10;82.10
2300;DHT22;1158;48.750;9.078;2023-02-28T13:44:07;9.40;82.10
2300;DHT22;1158;48.750;9.078;2023-02-28T13:47:15;9.10;80.00
2300;DHT22;1158;48.750;9.078;2023-02-28T13:49:28;9.40;79.60
2300;DHT22;1158;48.750;9.078;2023-02-28T13:52:09;9.80;78.80
2300;DHT22;1158;48.750;9.078;2023-02-28T13:54:50;9.00;78.60
2300;DHT22;1158;48.750;9.078;2023-02-28T13:57:32;9.20;80.20
2300;DHT22;1158;48.750;9.078;2023-02-28T14:00:17;9.50;78.20
2300;DHT22;1158;48.750;9.078;2023-02-28T14:03:03;10.20;77.60
2300;DHT22;1158;48.750;9.078;2023-02-28T14:05:34;9.70;78.30
2300;DHT22;1158;48.750;9.078;2023-02-28T14:08:06;9.10;78.40
2300;DHT22;1158;48.750;9.078;2023-02-28T14:10:39;8.60;80.40
2300;DHT22;1158;48.750;9.078;2023-02-28T14:16:00;9.70;78.50
2300;DHT22;1158;48.750;9.078;2023-02-28T14:18:30;9.20;78.20
2300;DHT22;1158;48.750;9.078;2023-02-28T14:21:08;9.90;78.10
2300;DHT22;1158;48.750;9.078;2023-02-28T14:26:41;11.10;75.10
2300;DHT22;1158;48.750;9.078;2023-02-28T14:29:28;10.20;74.30
2300;DHT22;1158;48.750;9.078;2023-02-28T14:32:00;10.80;75.30
2300;DHT22;1158;48.750;9.078;2023-02-28T14:34:37;11.70;73.80
2300;DHT22;1158;48.750;9.078;2023-02-28T14:37:13;11.60;72.40
2300;DHT22;1158;48.750;9.078;2023-02-28T14:39:41;11.50;73.10
2300;DHT22;1158;48.750;9.078;2023-02-28T14:42:26;11.80;72.60
2300;DHT22;1158;48.750;9.078;2023-02-28T14:44:54;11.20;72.70
2300;DHT22;1158;48.750;9.078;2023-02-28T14:47:23;11.10;73.60
2300;DHT22;1158;48.750;9.078;2023-02-28T14:49:52;11.00;72.50
2300;DHT22;1158;48.750;9.078;2023-02-28T14:52:22;10.90;72.70
2300;DHT22;1158;48.750;9.078;2023-02-28T14:54:52;10.90;73.00
2300;DHT22;1158;48.750;9.078;2023-02-28T14:57:24;11.00;72.20
2300;DHT22;1158;48.750;9.078;2023-02-28T15:00:03;11.20;73.30
2300;DHT22;1158;48.750;9.078;2023-02-28T15:02:36;11.60;72.10
2300;DHT22;1158;48.750;9.078;2023-02-28T15:05:19;11.30;71.90
2300;DHT22;1158;48.750;9.078;2023-02-28T15:08:01;10.60;71.70
2300;DHT22;1158;48.750;9.078;2023-02-28T15:10:28;10.60;72.60
2300;DHT22;1158;48.750;9.078;2023-02-28T15:12:57;10.90;72.90
2300;DHT22;1158;48.750;9.078;2023-02-28T15:15:27;11.10;71.80
2300;DHT22;1158;48.750;9.078;2023-02-28T15:17:56;10.50;72.50
2300;DHT22;1158;48.750;9.078;2023-02-28T15:20:24;10.00;73.00
2300;DHT22;1158;48.750;9.078;2023-02-28T15:22:55;10.60;72.90
2300;DHT22;1158;48.750;9.078;2023-02-28T15:25:23;10.80;71.90
2300;DHT22;1158;48.750;9.078;2023-02-28T15:27:53;11.30;72.10
2300;DHT22;1158;48.750;9.078;2023-02-28T15:30:24;10.60;72.30
2300;DHT22;1158;48.750;9.078;2023-02-28T15:33:06;10.50;73.50
2300;DHT22;1158;48.750;9.078;2023-02-28T15:35:37;10.70;72.10
2300;DHT22;1158;48.750;9.078;2023-02-28T15:38:15;11.10;72.60
2300;DHT22;1158;48.750;9.078;2023-02-28T15:40:44;11.50;71.50
2300;DHT22;1158;48.750;9.078;2023-02-28T15:43:23;11.20;71.10
2300;DHT22;1158;48.750;9.078;2023-02-28T15:45:51;10.40;72.50
2300;DHT22;1158;48.750;9.078;2023-02-28T15:48:20;10.80;72.20
2300;DHT22;1158;48.750;9.078;2023-02-28T15:50:50;10.80;73.50
2300;DHT22;1158;48.750;9.078;2023-02-28T15:53:21;10.40;73.00
2300;DHT22;1158;48.750;9.078;2023-02-28T15:55:55;10.90;72.70
2300;DHT22;1158;48.750;9.078;2023-02-28T15:58:25;11.00;71.90
2300;DHT22;1158;48.750;9.078;2023-02-28T16:01:07;10.50;72.50
2300;DHT22;1158;48.750;9.078;2023-02-28T16:03:43;9.40;75.50
2300;DHT22;1158;48.750;9.078;2023-02-28T16:06:35;9.30;76.10
2300;DHT22;1158;48.750;9.078;2023-02-28T16:09:05;9.20;76.70
2300;DHT22;1158;48.750;9.078;2023-02-28T16:11:34;8.40;76.90
2300;DHT22;1158;48.750;9.078;2023-02-28T16:14:03;8.60;78.30
2300;DHT22;1158;48.750;9.078;2023-02-28T16:16:31;8.00;78.10
2300;DHT22;1158;48.750;9.078;2023-02-28T16:18:59;7.30;80.10
2300;DHT22;1158;48.750;9.078;2023-02-28T16:21:26;6.60;81.40
2300;DHT22;1158;48.750;9.078;2023-02-28T16:23:52;6.50;82.20
2300;DHT22;1158;48.750;9.078;2023-02-28T16:26:23;5.90;83.50
2300;DHT22;1158;48.750;9.078;2023-02-28T16:28:53;5.80;83.90
2300;DHT22;1158;48.750;9.078;2023-02-28T16:31:20;5.40;84.40
2300;DHT22;1158;48.750;9.078;2023-02-28T16:33:48;4.80;86.10
2300;DHT22;1158;48.750;9.078;2023-02-28T16:36:17;4.50;87.20
2300;DHT22;1158;48.750;9.078;2023-02-28T16:38:44;4.40;87.90
2300;DHT22;1158;48.750;9.078;2023-02-28T16:41:17;4.30;88.20
2300;DHT22;1158;48.750;9.078;2023-02-28T16:43:47;4.10;88.90
2300;DHT22;1158;48.750;9.078;2023-02-28T16:46:15;3.90;89.50
2300;DHT22;1158;48.750;9.078;2023-02-28T16:48:42;3.70;90.00
2300;DHT22;1158;48.750;9.078;2023-02-28T16:51:12;3.60;90.20
2300;DHT22;1158;48.750;9.078;2023-02-28T16:53:39;3.40;90.40
2300;DHT22;1158;48.750;9.078;2023-02-28T16:56:08;3.40;90.60
2300;DHT22;1158;48.750;9.078;2023-02-28T16:58:38;3.30;90.90